1855 NOT_NAMED (1855021S15057)


IBTrACS version v04r00. Visit IBTrACS website for data access.
Please direct all questions to the IBTrACS Q and A forum

Storm track - Intensity - Wind Radii - Intensity Data - Source Data - All data

Summary Information

Storm ID 1855021S15057
Start Jan 21 06Z
End Jan 28 06Z
ATCF IDs
Track status Best track data.

Storm track plot

Map of storm track

Intensity plots

No Intensity information for this storm


Radial wind information

No radial wind information for this storm


Position and Intensity Table

BASIN ISO_TIME_________ NATURE LAT LON
degrees north degrees east
SI 1855-01-21 06:00:00 NR -14.65 57.35
SI 09:00:00 NR -14.76 57.40
SI 12:00:00 NR -14.87 57.44
SI 15:00:00 NR -15.00 57.50
SI 18:00:00 NR -15.13 57.56
SI 21:00:00 NR -15.29 57.63
SI 1855-01-22 00:00:00 NR -15.45 57.71
SI 03:00:00 NR -15.62 57.80
SI 06:00:00 NR -15.80 57.90
SI 09:00:00 NR -15.97 58.01
SI 12:00:00 NR -16.13 58.13
SI 15:00:00 NR -16.31 58.25
SI 18:00:00 NR -16.50 58.37
SI 21:00:00 NR -16.70 58.49
SI 1855-01-23 00:00:00 NR -16.91 58.61
SI 03:00:00 NR -17.13 58.73
SI 06:00:00 NR -17.35 58.85
SI 09:00:00 NR -17.56 58.97
SI 12:00:00 NR -17.77 59.10
SI 15:00:00 NR -17.99 59.24
SI 18:00:00 NR -18.21 59.37
SI 21:00:00 NR -18.43 59.50
SI 1855-01-24 00:00:00 NR -18.65 59.63
SI 03:00:00 NR -18.88 59.76
SI 06:00:00 NR -19.10 59.90
SI 09:00:00 NR -19.32 60.05
SI 12:00:00 NR -19.54 60.20
SI 15:00:00 NR -19.76 60.34
SI 18:00:00 NR -19.99 60.49
SI 21:00:00 NR -20.21 60.63
SI 1855-01-25 00:00:00 NR -20.44 60.76
SI 03:00:00 NR -20.69 60.90
SI 06:00:00 NR -20.95 61.05
SI 09:00:00 NR -21.23 61.22
SI 12:00:00 NR -21.52 61.41
SI 15:00:00 NR -21.83 61.60
SI 18:00:00 NR -22.15 61.80
SI 21:00:00 NR -22.47 61.99
SI 1855-01-26 00:00:00 NR -22.60 62.04
SI 03:00:00 NR -22.63 62.04
SI 06:00:00 NR -22.54 61.94
SI 09:00:00 NR -22.29 61.73
SI 12:00:00 NR -22.72 61.99
SI 15:00:00 NR -23.17 62.26
SI 18:00:00 NR -23.63 62.53
SI 21:00:00 NR -24.07 62.80
SI 1855-01-27 00:00:00 NR -24.50 63.06
SI 03:00:00 NR -24.88 63.29
SI 06:00:00 NR -25.20 63.50
SI 09:00:00 NR -25.46 63.67
SI 12:00:00 NR -25.65 63.80
SI 15:00:00 NR -25.79 63.90
SI 18:00:00 NR -25.89 63.97
SI 21:00:00 NR -25.95 64.02
SI 1855-01-28 00:00:00 NR -25.98 64.06
SI 03:00:00 NR -25.99 64.08
SI 06:00:00 NR -26.00 64.10

Source Information

Agency Information
USA
TOKYO
CMA
HKO
NEWDELHI
REUNION WMO-Best-Tracks.txt:Line=93:xxxx855014
BOM
NADI
WELLINGTON
DS824
TD9636 cons_worldwide_trop_cyclone_18710101-19891231-005:Line=126
TD9635
NEUMANN
MLC

All available IBTrACS Data

SEASON BASIN SUBBASIN ISO_TIME_________ NATURE LAT LON WMO AGENCY DIST2LAND LANDFALL IFLAG USA SSHS REUNION LAT REUNION LON REUNION TYPE REUNION TNUM TD9636 LAT TD9636 LON TD9636 STAGE STORM SPEED STORM DIR
Year degrees north degrees east km km 1 degrees north degrees east 1 degrees north degrees east kts degrees
1855 SI MM 1855-01-21 06:00:00 NR -14.65 57.35 reunion 615 593 _____O____O___ -1 -14.40 57.10 99 9.90 -14.90 57.60 7 2 158
1855 SI MM 09:00:00 NR -14.76 57.40 593 581 _____P____P___ -1 -14.46 57.10 99 -15.06 57.69 7 2 159
1855 SI MM 12:00:00 NR -14.87 57.44 581 570 _____P____P___ -1 -14.52 57.10 99 -15.23 57.79 7 3 158
1855 SI MM 15:00:00 NR -15.00 57.50 570 559 _____P____P___ -1 -14.59 57.10 99 -15.40 57.89 7 3 157
1855 SI MM 18:00:00 NR -15.13 57.56 559 537 _____P____O___ -1 -14.67 57.12 99 -15.60 58.00 7 3 157
1855 SI MM 21:00:00 NR -15.29 57.63 537 525 _____P____P___ -1 -14.76 57.14 99 -15.82 58.12 7 4 155
1855 SI MM 1855-01-22 00:00:00 NR -15.45 57.71 514 503 _____P____P___ -1 -14.85 57.18 99 -16.05 58.24 7 4 154
1855 SI MM 03:00:00 NR -15.62 57.80 503 481 _____P____P___ -1 -14.97 57.23 99 -16.28 58.37 7 4 153
1855 SI MM 06:00:00 NR -15.80 57.90 reunion 481 459 _____O____O___ -1 -15.10 57.30 99 9.90 -16.50 58.50 7 4 149
1855 SI MM 09:00:00 NR -15.97 58.01 459 449 _____P____P___ -1 -15.25 57.39 99 -16.68 58.63 7 4 147
1855 SI MM 12:00:00 NR -16.13 58.13 449 428 _____P____P___ -1 -15.42 57.50 99 -16.85 58.76 7 4 146
1855 SI MM 15:00:00 NR -16.31 58.25 428 407 _____P____P___ -1 -15.60 57.62 99 -17.02 58.88 7 4 147
1855 SI MM 18:00:00 NR -16.50 58.37 409 389 _____P____O___ -1 -15.79 57.75 99 -17.20 59.00 7 5 149
1855 SI MM 21:00:00 NR -16.70 58.49 389 370 _____P____P___ -1 -15.99 57.88 99 -17.41 59.10 7 5 152
1855 SI MM 1855-01-23 00:00:00 NR -16.91 58.61 370 351 _____P____P___ -1 -16.19 58.02 99 -17.63 59.19 7 5 153
1855 SI MM 03:00:00 NR -17.13 58.73 351 333 _____P____P___ -1 -16.40 58.16 99 -17.86 59.29 7 5 152
1855 SI MM 06:00:00 NR -17.35 58.85 reunion 337 317 _____O____O___ -1 -16.60 58.30 99 9.90 -18.10 59.40 7 5 152
1855 SI MM 09:00:00 NR -17.56 58.97 311 296 _____P____P___ -1 -16.78 58.41 99 -18.34 59.54 7 5 150
1855 SI MM 12:00:00 NR -17.77 59.10 296 282 _____P____P___ -1 -16.95 58.52 99 -18.59 59.69 7 5 150
1855 SI MM 15:00:00 NR -17.99 59.24 282 270 _____P____P___ -1 -17.13 58.63 99 -18.85 59.84 7 5 150
1855 SI MM 18:00:00 NR -18.21 59.37 277 268 _____P____O___ -1 -17.31 58.74 99 -19.10 60.00 7 5 150
1855 SI MM 21:00:00 NR -18.43 59.50 268 260 _____P____P___ -1 -17.50 58.85 99 -19.36 60.15 7 5 151
1855 SI MM 1855-01-24 00:00:00 NR -18.65 59.63 253 248 _____P____P___ -1 -17.69 58.96 99 -19.61 60.30 7 5 151
1855 SI MM 03:00:00 NR -18.88 59.76 257 252 _____P____P___ -1 -17.89 59.08 99 -19.86 60.45 7 5 150
1855 SI MM 06:00:00 NR -19.10 59.90 reunion 256 251 _____O____O___ -1 -18.10 59.20 99 9.90 -20.10 60.60 7 5 149
1855 SI MM 09:00:00 NR -19.32 60.05 255 255 _____P____P___ -1 -18.33 59.34 99 -20.31 60.75 7 5 147
1855 SI MM 12:00:00 NR -19.54 60.20 266 262 _____P____P___ -1 -18.57 59.48 99 -20.51 60.91 7 5 147
1855 SI MM 15:00:00 NR -19.76 60.34 267 267 _____P____P___ -1 -18.82 59.63 99 -20.70 61.06 7 5 148
1855 SI MM 18:00:00 NR -19.99 60.49 283 282 _____P____O___ -1 -19.08 59.78 99 -20.90 61.20 7 5 150
1855 SI MM 21:00:00 NR -20.21 60.63 292 291 _____P____P___ -1 -19.34 59.94 99 -21.09 61.31 7 5 151
1855 SI MM 1855-01-25 00:00:00 NR -20.44 60.76 312 312 _____P____P___ -1 -19.59 60.09 99 -21.29 61.42 7 5 152
1855 SI MM 03:00:00 NR -20.69 60.90 325 325 _____P____P___ -1 -19.85 60.25 99 -21.52 61.54 7 6 152
1855 SI MM 06:00:00 NR -20.95 61.05 reunion 349 352 _____O____O___ -1 -20.10 60.40 99 9.90 -21.80 61.70 7 6 151
1855 SI MM 09:00:00 NR -21.23 61.22 367 367 _____P____P___ -1 -20.31 60.53 99 -22.15 61.91 7 7 150
1855 SI MM 12:00:00 NR -21.52 61.41 397 397 _____P____P___ -1 -20.50 60.65 99 -22.54 62.16 7 7 150
1855 SI MM 15:00:00 NR -21.83 61.60 428 428 _____P____P___ -1 -20.70 60.77 99 -22.96 62.43 7 7 150
1855 SI MM 18:00:00 NR -22.15 61.80 465 465 _____P____O___ -1 -20.90 60.89 99 -23.40 62.70 7 7 150
1855 SI MM 21:00:00 NR -22.47 61.99 497 497 _____P____P___ -1 -21.12 61.03 99 -23.83 62.96 7 5 153
1855 SI MM 1855-01-26 00:00:00 NR -22.60 62.04 502 502 _____P____P___ -1 -21.35 61.17 99 -24.26 63.21 7 2 166
1855 SI MM 03:00:00 NR -22.63 62.04 502 488 _____P____P___ -1 -21.61 61.32 99 -24.68 63.46 7 1 300
1855 SI MM 06:00:00 NR -22.54 61.94 reunion 488 460 _____O____O___ -1 -21.90 61.50 99 9.90 -25.10 63.70 7 4 321
1855 SI MM 09:00:00 NR -22.29 61.73 460 460 _____P________ -1 -22.29 61.73 99 7 2 166
1855 SI MM 12:00:00 NR -22.72 61.99 507 507 _____P________ -1 -22.72 61.99 99 7 10 151
1855 SI MM 15:00:00 NR -23.17 62.26 562 562 _____P________ -1 -23.17 62.26 99 7 10 151
1855 SI MM 18:00:00 NR -23.63 62.53 603 603 _____P________ -1 -23.63 62.53 99 10 151
1855 SI MM 21:00:00 NR -24.07 62.80 661 661 _____P________ -1 -24.07 62.80 99 10 151
1855 SI MM 1855-01-27 00:00:00 NR -24.50 63.06 712 712 _____P________ -1 -24.50 63.06 99 9 151
1855 SI MM 03:00:00 NR -24.88 63.29 755 755 _____P________ -1 -24.88 63.29 99 8 150
1855 SI MM 06:00:00 NR -25.20 63.50 reunion 792 792 _____O________ -1 -25.20 63.50 99 9.90 7 150
1855 SI MM 09:00:00 NR -25.46 63.67 829 829 _____P________ -1 -25.46 63.67 99 5 149
1855 SI MM 12:00:00 NR -25.65 63.80 852 852 _____P________ -1 -25.65 63.80 99 4 148
1855 SI MM 15:00:00 NR -25.79 63.90 867 867 _____P________ -1 -25.79 63.90 99 3 147
1855 SI MM 18:00:00 NR -25.89 63.97 882 882 _____P________ -1 -25.89 63.97 99 2 145
1855 SI MM 21:00:00 NR -25.95 64.02 882 882 _____P________ -1 -25.95 64.02 99 1 138
1855 SI MM 1855-01-28 00:00:00 NR -25.98 64.06 896 896 _____P________ -1 -25.98 64.06 99 1 135
1855 SI MM 03:00:00 NR -25.99 64.08 896 896 _____P________ -1 -25.99 64.08 99 0 123
1855 SI MM 06:00:00 NR -26.00 64.10 reunion 896 _____O________ -1 -26.00 64.10 99 9.90 0 0